sensor_id;sensor_type;location;lat;lon;timestamp;P1;durP1;ratioP1;P2;durP2;ratioP2
3189;SDS011;1606;51.946;10.558;2023-09-12T00:01:17;17.40;;;10.93;;
3189;SDS011;1606;51.946;10.558;2023-09-12T00:03:45;24.90;;;11.73;;
3189;SDS011;1606;51.946;10.558;2023-09-12T00:06:13;21.33;;;10.40;;
3189;SDS011;1606;51.946;10.558;2023-09-12T00:08:42;20.83;;;10.90;;
3189;SDS011;1606;51.946;10.558;2023-09-12T00:11:10;15.97;;;9.60;;
3189;SDS011;1606;51.946;10.558;2023-09-12T00:13:38;19.53;;;9.90;;
3189;SDS011;1606;51.946;10.558;2023-09-12T00:16:08;14.80;;;10.90;;
3189;SDS011;1606;51.946;10.558;2023-09-12T00:18:37;14.90;;;10.20;;
3189;SDS011;1606;51.946;10.558;2023-09-12T00:21:06;20.87;;;10.70;;
3189;SDS011;1606;51.946;10.558;2023-09-12T00:23:34;21.93;;;10.50;;
3189;SDS011;1606;51.946;10.558;2023-09-12T00:26:02;17.33;;;10.70;;
3189;SDS011;1606;51.946;10.558;2023-09-12T00:28:30;16.43;;;11.03;;
3189;SDS011;1606;51.946;10.558;2023-09-12T00:30:59;21.40;;;10.60;;
3189;SDS011;1606;51.946;10.558;2023-09-12T00:33:28;16.93;;;12.23;;
3189;SDS011;1606;51.946;10.558;2023-09-12T00:35:57;23.27;;;11.20;;
3189;SDS011;1606;51.946;10.558;2023-09-12T00:38:25;17.13;;;10.13;;
3189;SDS011;1606;51.946;10.558;2023-09-12T00:40:53;19.40;;;10.73;;
3189;SDS011;1606;51.946;10.558;2023-09-12T00:43:24;19.90;;;11.27;;
3189;SDS011;1606;51.946;10.558;2023-09-12T00:45:52;18.10;;;10.87;;
3189;SDS011;1606;51.946;10.558;2023-09-12T00:48:20;17.40;;;10.43;;
3189;SDS011;1606;51.946;10.558;2023-09-12T00:50:51;18.73;;;10.40;;
3189;SDS011;1606;51.946;10.558;2023-09-12T00:53:19;23.50;;;11.63;;
3189;SDS011;1606;51.946;10.558;2023-09-12T00:55:49;20.03;;;11.83;;
3189;SDS011;1606;51.946;10.558;2023-09-12T00:58:22;18.00;;;10.60;;
3189;SDS011;1606;51.946;10.558;2023-09-12T01:00:50;19.23;;;9.80;;
3189;SDS011;1606;51.946;10.558;2023-09-12T01:03:18;19.17;;;11.43;;
3189;SDS011;1606;51.946;10.558;2023-09-12T01:05:46;20.77;;;11.47;;
3189;SDS011;1606;51.946;10.558;2023-09-12T01:08:17;25.33;;;11.50;;
3189;SDS011;1606;51.946;10.558;2023-09-12T01:10:45;17.07;;;9.83;;
3189;SDS011;1606;51.946;10.558;2023-09-12T01:13:16;19.23;;;11.57;;
3189;SDS011;1606;51.946;10.558;2023-09-12T01:15:44;18.00;;;11.57;;
3189;SDS011;1606;51.946;10.558;2023-09-12T01:18:12;22.50;;;11.83;;
3189;SDS011;1606;51.946;10.558;2023-09-12T01:20:41;20.30;;;10.67;;
3189;SDS011;1606;51.946;10.558;2023-09-12T01:23:30;18.03;;;11.37;;
3189;SDS011;1606;51.946;10.558;2023-09-12T01:26:17;17.13;;;10.77;;
3189;SDS011;1606;51.946;10.558;2023-09-12T01:28:54;18.33;;;10.97;;
3189;SDS011;1606;51.946;10.558;2023-09-12T01:31:24;20.27;;;11.30;;
3189;SDS011;1606;51.946;10.558;2023-09-12T01:33:54;21.07;;;10.33;;
3189;SDS011;1606;51.946;10.558;2023-09-12T01:36:23;16.07;;;10.90;;
3189;SDS011;1606;51.946;10.558;2023-09-12T01:38:51;15.70;;;11.67;;
3189;SDS011;1606;51.946;10.558;2023-09-12T01:41:19;20.17;;;10.83;;
3189;SDS011;1606;51.946;10.558;2023-09-12T01:43:47;23.50;;;11.02;;
3189;SDS011;1606;51.946;10.558;2023-09-12T01:46:19;18.10;;;9.93;;
3189;SDS011;1606;51.946;10.558;2023-09-12T01:48:48;17.40;;;9.60;;
3189;SDS011;1606;51.946;10.558;2023-09-12T01:51:19;17.70;;;11.27;;
3189;SDS011;1606;51.946;10.558;2023-09-12T01:53:47;18.70;;;11.03;;
3189;SDS011;1606;51.946;10.558;2023-09-12T01:56:16;17.23;;;9.67;;
3189;SDS011;1606;51.946;10.558;2023-09-12T01:58:46;17.20;;;11.33;;
3189;SDS011;1606;51.946;10.558;2023-09-12T02:01:14;21.40;;;10.20;;
3189;SDS011;1606;51.946;10.558;2023-09-12T02:03:43;27.50;;;11.00;;
3189;SDS011;1606;51.946;10.558;2023-09-12T02:06:11;18.97;;;11.37;;
3189;SDS011;1606;51.946;10.558;2023-09-12T02:08:39;19.07;;;11.93;;
3189;SDS011;1606;51.946;10.558;2023-09-12T02:11:07;15.73;;;10.33;;
3189;SDS011;1606;51.946;10.558;2023-09-12T02:13:35;17.87;;;10.27;;
3189;SDS011;1606;51.946;10.558;2023-09-12T02:16:03;22.93;;;12.20;;
3189;SDS011;1606;51.946;10.558;2023-09-12T02:18:31;18.55;;;10.30;;
3189;SDS011;1606;51.946;10.558;2023-09-12T02:21:01;26.03;;;10.97;;
3189;SDS011;1606;51.946;10.558;2023-09-12T02:23:29;19.30;;;10.03;;
3189;SDS011;1606;51.946;10.558;2023-09-12T02:25:57;19.23;;;10.83;;
3189;SDS011;1606;51.946;10.558;2023-09-12T02:28:24;17.23;;;11.23;;
3189;SDS011;1606;51.946;10.558;2023-09-12T02:30:52;25.87;;;10.37;;
3189;SDS011;1606;51.946;10.558;2023-09-12T02:33:20;21.17;;;10.90;;
3189;SDS011;1606;51.946;10.558;2023-09-12T02:35:48;21.40;;;11.20;;
3189;SDS011;1606;51.946;10.558;2023-09-12T02:38:17;27.63;;;11.73;;
3189;SDS011;1606;51.946;10.558;2023-09-12T02:40:45;20.50;;;11.10;;
3189;SDS011;1606;51.946;10.558;2023-09-12T02:43:13;17.23;;;11.07;;
3189;SDS011;1606;51.946;10.558;2023-09-12T02:45:41;21.37;;;11.27;;
3189;SDS011;1606;51.946;10.558;2023-09-12T02:48:09;26.17;;;11.03;;
3189;SDS011;1606;51.946;10.558;2023-09-12T02:50:37;19.27;;;11.90;;
3189;SDS011;1606;51.946;10.558;2023-09-12T02:53:05;20.60;;;11.30;;
3189;SDS011;1606;51.946;10.558;2023-09-12T02:55:38;19.77;;;12.43;;
3189;SDS011;1606;51.946;10.558;2023-09-12T02:58:06;21.60;;;12.37;;
3189;SDS011;1606;51.946;10.558;2023-09-12T03:00:37;16.63;;;10.33;;
3189;SDS011;1606;51.946;10.558;2023-09-12T03:03:05;18.23;;;10.30;;
3189;SDS011;1606;51.946;10.558;2023-09-12T03:05:35;23.53;;;11.37;;
3189;SDS011;1606;51.946;10.558;2023-09-12T03:08:03;17.53;;;11.43;;
3189;SDS011;1606;51.946;10.558;2023-09-12T03:10:31;21.33;;;10.77;;
3189;SDS011;1606;51.946;10.558;2023-09-12T03:13:00;16.50;;;11.07;;
3189;SDS011;1606;51.946;10.558;2023-09-12T03:15:29;20.20;;;12.03;;
3189;SDS011;1606;51.946;10.558;2023-09-12T03:17:57;20.73;;;12.90;;
3189;SDS011;1606;51.946;10.558;2023-09-12T03:20:25;24.77;;;13.17;;
3189;SDS011;1606;51.946;10.558;2023-09-12T03:22:53;26.37;;;16.53;;
3189;SDS011;1606;51.946;10.558;2023-09-12T03:25:20;19.80;;;14.73;;
3189;SDS011;1606;51.946;10.558;2023-09-12T03:27:48;26.60;;;17.27;;
3189;SDS011;1606;51.946;10.558;2023-09-12T03:30:19;20.50;;;15.20;;
3189;SDS011;1606;51.946;10.558;2023-09-12T03:32:47;23.97;;;14.50;;
3189;SDS011;1606;51.946;10.558;2023-09-12T03:35:15;23.23;;;15.03;;
3189;SDS011;1606;51.946;10.558;2023-09-12T03:37:43;21.13;;;14.30;;
3189;SDS011;1606;51.946;10.558;2023-09-12T03:40:11;19.40;;;12.60;;
3189;SDS011;1606;51.946;10.558;2023-09-12T03:42:39;26.50;;;13.63;;
3189;SDS011;1606;51.946;10.558;2023-09-12T03:45:08;24.10;;;14.63;;
3189;SDS011;1606;51.946;10.558;2023-09-12T03:47:38;22.53;;;13.93;;
3189;SDS011;1606;51.946;10.558;2023-09-12T03:50:06;20.60;;;13.65;;
3189;SDS011;1606;51.946;10.558;2023-09-12T03:52:34;23.70;;;15.20;;
3189;SDS011;1606;51.946;10.558;2023-09-12T03:55:02;23.07;;;14.10;;
3189;SDS011;1606;51.946;10.558;2023-09-12T03:57:30;18.50;;;13.60;;
3189;SDS011;1606;51.946;10.558;2023-09-12T03:59:58;21.90;;;14.90;;
3189;SDS011;1606;51.946;10.558;2023-09-12T04:02:26;20.03;;;15.97;;
3189;SDS011;1606;51.946;10.558;2023-09-12T04:04:55;17.43;;;13.00;;
3189;SDS011;1606;51.946;10.558;2023-09-12T04:07:25;21.23;;;14.57;;
3189;SDS011;1606;51.946;10.558;2023-09-12T04:09:53;21.33;;;14.20;;
3189;SDS011;1606;51.946;10.558;2023-09-12T04:12:21;20.00;;;13.30;;
3189;SDS011;1606;51.946;10.558;2023-09-12T04:14:50;23.90;;;14.07;;
3189;SDS011;1606;51.946;10.558;2023-09-12T04:17:18;17.83;;;12.73;;
3189;SDS011;1606;51.946;10.558;2023-09-12T04:19:46;18.10;;;13.33;;
3189;SDS011;1606;51.946;10.558;2023-09-12T04:22:15;20.93;;;13.53;;
3189;SDS011;1606;51.946;10.558;2023-09-12T04:24:44;20.30;;;14.07;;
3189;SDS011;1606;51.946;10.558;2023-09-12T04:27:12;19.90;;;13.70;;
3189;SDS011;1606;51.946;10.558;2023-09-12T04:29:40;17.83;;;12.57;;
3189;SDS011;1606;51.946;10.558;2023-09-12T04:32:08;23.50;;;15.00;;
3189;SDS011;1606;51.946;10.558;2023-09-12T04:34:36;20.67;;;14.13;;
3189;SDS011;1606;51.946;10.558;2023-09-12T04:37:04;19.20;;;14.90;;
3189;SDS011;1606;51.946;10.558;2023-09-12T04:39:34;22.50;;;14.23;;
3189;SDS011;1606;51.946;10.558;2023-09-12T04:42:02;20.73;;;13.27;;
3189;SDS011;1606;51.946;10.558;2023-09-12T04:44:34;20.80;;;14.10;;
3189;SDS011;1606;51.946;10.558;2023-09-12T04:47:02;19.93;;;14.50;;
3189;SDS011;1606;51.946;10.558;2023-09-12T04:49:30;18.27;;;13.20;;
3189;SDS011;1606;51.946;10.558;2023-09-12T04:51:58;20.48;;;13.07;;
3189;SDS011;1606;51.946;10.558;2023-09-12T04:54:26;21.57;;;13.40;;
3189;SDS011;1606;51.946;10.558;2023-09-12T04:56:56;19.53;;;14.53;;
3189;SDS011;1606;51.946;10.558;2023-09-12T04:59:23;25.03;;;15.10;;
3189;SDS011;1606;51.946;10.558;2023-09-12T05:01:51;22.50;;;16.10;;
3189;SDS011;1606;51.946;10.558;2023-09-12T05:04:19;23.00;;;15.70;;
3189;SDS011;1606;51.946;10.558;2023-09-12T05:06:47;28.20;;;15.93;;
3189;SDS011;1606;51.946;10.558;2023-09-12T05:09:15;25.70;;;16.90;;
3189;SDS011;1606;51.946;10.558;2023-09-12T05:11:43;27.70;;;16.43;;
3189;SDS011;1606;51.946;10.558;2023-09-12T05:14:12;28.43;;;16.90;;
3189;SDS011;1606;51.946;10.558;2023-09-12T05:16:40;24.20;;;15.10;;
3189;SDS011;1606;51.946;10.558;2023-09-12T05:19:08;25.47;;;16.60;;
3189;SDS011;1606;51.946;10.558;2023-09-12T05:21:36;23.00;;;15.57;;
3189;SDS011;1606;51.946;10.558;2023-09-12T05:24:04;25.20;;;18.00;;
3189;SDS011;1606;51.946;10.558;2023-09-12T05:26:32;28.10;;;17.40;;
3189;SDS011;1606;51.946;10.558;2023-09-12T05:29:00;53.73;;;17.93;;
3189;SDS011;1606;51.946;10.558;2023-09-12T05:31:29;24.40;;;16.90;;
3189;SDS011;1606;51.946;10.558;2023-09-12T05:33:58;25.40;;;15.80;;
3189;SDS011;1606;51.946;10.558;2023-09-12T05:36:26;25.23;;;15.07;;
3189;SDS011;1606;51.946;10.558;2023-09-12T05:38:54;23.53;;;16.70;;
3189;SDS011;1606;51.946;10.558;2023-09-12T05:41:25;23.87;;;16.40;;
3189;SDS011;1606;51.946;10.558;2023-09-12T05:43:53;23.47;;;16.57;;
3189;SDS011;1606;51.946;10.558;2023-09-12T05:46:21;24.23;;;16.80;;
3189;SDS011;1606;51.946;10.558;2023-09-12T05:48:50;23.40;;;16.97;;
3189;SDS011;1606;51.946;10.558;2023-09-12T05:51:19;21.20;;;15.80;;
3189;SDS011;1606;51.946;10.558;2023-09-12T05:53:47;22.10;;;16.37;;
3189;SDS011;1606;51.946;10.558;2023-09-12T05:56:15;25.63;;;16.53;;
3189;SDS011;1606;51.946;10.558;2023-09-12T05:58:43;21.90;;;15.77;;
3189;SDS011;1606;51.946;10.558;2023-09-12T06:01:11;28.30;;;15.57;;
3189;SDS011;1606;51.946;10.558;2023-09-12T06:03:40;30.10;;;16.33;;
3189;SDS011;1606;51.946;10.558;2023-09-12T06:06:10;21.67;;;17.20;;
3189;SDS011;1606;51.946;10.558;2023-09-12T06:08:38;21.20;;;15.00;;
3189;SDS011;1606;51.946;10.558;2023-09-12T06:11:06;27.37;;;17.40;;
3189;SDS011;1606;51.946;10.558;2023-09-12T06:13:34;24.37;;;17.20;;
3189;SDS011;1606;51.946;10.558;2023-09-12T06:16:03;23.33;;;17.30;;
3189;SDS011;1606;51.946;10.558;2023-09-12T06:18:32;24.07;;;16.10;;
3189;SDS011;1606;51.946;10.558;2023-09-12T06:21:01;26.07;;;18.57;;
3189;SDS011;1606;51.946;10.558;2023-09-12T06:23:34;20.93;;;15.90;;
3189;SDS011;1606;51.946;10.558;2023-09-12T06:26:01;22.90;;;16.80;;
3189;SDS011;1606;51.946;10.558;2023-09-12T06:28:30;24.70;;;17.60;;
3189;SDS011;1606;51.946;10.558;2023-09-12T06:30:58;25.73;;;16.57;;
3189;SDS011;1606;51.946;10.558;2023-09-12T06:33:26;24.10;;;16.47;;
3189;SDS011;1606;51.946;10.558;2023-09-12T06:35:54;27.53;;;15.40;;
3189;SDS011;1606;51.946;10.558;2023-09-12T06:38:22;19.23;;;14.27;;
3189;SDS011;1606;51.946;10.558;2023-09-12T06:40:52;22.37;;;15.87;;
3189;SDS011;1606;51.946;10.558;2023-09-12T06:43:19;20.80;;;15.80;;
3189;SDS011;1606;51.946;10.558;2023-09-12T06:45:47;20.80;;;15.23;;
3189;SDS011;1606;51.946;10.558;2023-09-12T06:48:16;23.23;;;16.00;;
3189;SDS011;1606;51.946;10.558;2023-09-12T06:50:44;21.43;;;17.33;;
3189;SDS011;1606;51.946;10.558;2023-09-12T06:53:17;27.27;;;16.83;;
3189;SDS011;1606;51.946;10.558;2023-09-12T06:55:45;23.63;;;15.60;;
3189;SDS011;1606;51.946;10.558;2023-09-12T06:58:14;19.03;;;15.83;;
3189;SDS011;1606;51.946;10.558;2023-09-12T07:00:42;22.30;;;13.80;;
3189;SDS011;1606;51.946;10.558;2023-09-12T07:03:10;22.50;;;14.43;;
3189;SDS011;1606;51.946;10.558;2023-09-12T07:05:42;20.67;;;13.90;;
3189;SDS011;1606;51.946;10.558;2023-09-12T07:08:10;18.80;;;15.30;;
3189;SDS011;1606;51.946;10.558;2023-09-12T07:10:43;19.17;;;12.23;;
3189;SDS011;1606;51.946;10.558;2023-09-12T07:13:11;15.30;;;11.73;;
3189;SDS011;1606;51.946;10.558;2023-09-12T07:15:40;17.57;;;11.63;;
3189;SDS011;1606;51.946;10.558;2023-09-12T07:18:08;17.87;;;12.50;;
3189;SDS011;1606;51.946;10.558;2023-09-12T07:20:36;19.20;;;12.80;;
3189;SDS011;1606;51.946;10.558;2023-09-12T07:23:04;16.50;;;11.60;;
3189;SDS011;1606;51.946;10.558;2023-09-12T07:25:35;20.30;;;12.00;;
3189;SDS011;1606;51.946;10.558;2023-09-12T07:28:05;20.40;;;13.13;;
3189;SDS011;1606;51.946;10.558;2023-09-12T07:30:33;17.23;;;12.13;;
3189;SDS011;1606;51.946;10.558;2023-09-12T07:33:03;16.30;;;11.50;;
3189;SDS011;1606;51.946;10.558;2023-09-12T07:35:32;17.10;;;11.37;;
3189;SDS011;1606;51.946;10.558;2023-09-12T07:37:59;15.30;;;11.57;;
3189;SDS011;1606;51.946;10.558;2023-09-12T07:40:27;16.93;;;9.90;;
3189;SDS011;1606;51.946;10.558;2023-09-12T07:42:55;16.87;;;11.40;;
3189;SDS011;1606;51.946;10.558;2023-09-12T07:45:23;21.40;;;11.63;;
3189;SDS011;1606;51.946;10.558;2023-09-12T07:47:51;12.13;;;7.83;;
3189;SDS011;1606;51.946;10.558;2023-09-12T07:50:21;12.00;;;6.83;;
3189;SDS011;1606;51.946;10.558;2023-09-12T07:52:49;9.20;;;5.90;;
3189;SDS011;1606;51.946;10.558;2023-09-12T07:55:17;11.77;;;7.10;;
3189;SDS011;1606;51.946;10.558;2023-09-12T07:57:45;13.70;;;7.30;;
3189;SDS011;1606;51.946;10.558;2023-09-12T08:00:13;13.43;;;7.90;;
3189;SDS011;1606;51.946;10.558;2023-09-12T08:02:43;12.53;;;7.90;;
3189;SDS011;1606;51.946;10.558;2023-09-12T08:05:11;12.00;;;7.87;;
3189;SDS011;1606;51.946;10.558;2023-09-12T08:07:40;12.07;;;8.13;;
3189;SDS011;1606;51.946;10.558;2023-09-12T08:10:08;14.00;;;7.73;;
3189;SDS011;1606;51.946;10.558;2023-09-12T08:12:36;10.80;;;7.60;;
3189;SDS011;1606;51.946;10.558;2023-09-12T08:15:07;9.90;;;6.53;;
3189;SDS011;1606;51.946;10.558;2023-09-12T08:17:35;10.10;;;6.90;;
3189;SDS011;1606;51.946;10.558;2023-09-12T08:20:04;14.00;;;7.13;;
3189;SDS011;1606;51.946;10.558;2023-09-12T08:22:36;11.00;;;6.50;;
3189;SDS011;1606;51.946;10.558;2023-09-12T08:25:05;12.67;;;6.90;;
3189;SDS011;1606;51.946;10.558;2023-09-12T08:27:33;11.50;;;6.20;;
3189;SDS011;1606;51.946;10.558;2023-09-12T08:30:01;10.20;;;6.33;;
3189;SDS011;1606;51.946;10.558;2023-09-12T08:32:30;9.33;;;6.20;;
3189;SDS011;1606;51.946;10.558;2023-09-12T08:34:58;12.10;;;6.30;;
3189;SDS011;1606;51.946;10.558;2023-09-12T08:37:26;10.63;;;5.67;;
3189;SDS011;1606;51.946;10.558;2023-09-12T08:39:54;10.03;;;6.07;;
3189;SDS011;1606;51.946;10.558;2023-09-12T08:42:26;8.87;;;4.70;;
3189;SDS011;1606;51.946;10.558;2023-09-12T08:44:55;11.37;;;4.90;;
3189;SDS011;1606;51.946;10.558;2023-09-12T08:47:23;11.83;;;5.70;;
3189;SDS011;1606;51.946;10.558;2023-09-12T08:49:54;9.33;;;4.60;;
3189;SDS011;1606;51.946;10.558;2023-09-12T08:52:22;10.57;;;5.50;;
3189;SDS011;1606;51.946;10.558;2023-09-12T08:54:50;9.90;;;4.90;;
3189;SDS011;1606;51.946;10.558;2023-09-12T08:57:18;9.30;;;4.17;;
3189;SDS011;1606;51.946;10.558;2023-09-12T08:59:48;9.90;;;4.70;;
3189;SDS011;1606;51.946;10.558;2023-09-12T09:02:17;9.40;;;5.00;;
3189;SDS011;1606;51.946;10.558;2023-09-12T09:04:46;10.77;;;4.43;;
3189;SDS011;1606;51.946;10.558;2023-09-12T09:07:17;7.93;;;4.03;;
3189;SDS011;1606;51.946;10.558;2023-09-12T09:09:46;8.60;;;4.27;;
3189;SDS011;1606;51.946;10.558;2023-09-12T09:12:17;8.87;;;4.20;;
3189;SDS011;1606;51.946;10.558;2023-09-12T09:14:46;7.77;;;3.80;;
3189;SDS011;1606;51.946;10.558;2023-09-12T09:17:16;8.90;;;3.37;;
3189;SDS011;1606;51.946;10.558;2023-09-12T09:20:01;8.83;;;3.10;;
3189;SDS011;1606;51.946;10.558;2023-09-12T09:22:35;8.23;;;4.00;;
3189;SDS011;1606;51.946;10.558;2023-09-12T09:25:09;9.60;;;3.23;;
3189;SDS011;1606;51.946;10.558;2023-09-12T09:27:39;9.90;;;3.70;;
3189;SDS011;1606;51.946;10.558;2023-09-12T09:30:07;9.68;;;3.58;;
3189;SDS011;1606;51.946;10.558;2023-09-12T09:32:37;7.03;;;3.47;;
3189;SDS011;1606;51.946;10.558;2023-09-12T09:35:05;12.03;;;3.10;;
3189;SDS011;1606;51.946;10.558;2023-09-12T09:37:34;6.73;;;3.10;;
3189;SDS011;1606;51.946;10.558;2023-09-12T09:40:04;8.70;;;2.73;;
3189;SDS011;1606;51.946;10.558;2023-09-12T09:42:33;6.20;;;2.37;;
3189;SDS011;1606;51.946;10.558;2023-09-12T09:45:01;9.13;;;2.50;;
3189;SDS011;1606;51.946;10.558;2023-09-12T09:47:29;9.03;;;2.57;;
3189;SDS011;1606;51.946;10.558;2023-09-12T09:49:59;6.17;;;2.77;;
3189;SDS011;1606;51.946;10.558;2023-09-12T09:52:27;6.53;;;2.80;;
3189;SDS011;1606;51.946;10.558;2023-09-12T09:54:54;6.70;;;2.70;;
3189;SDS011;1606;51.946;10.558;2023-09-12T09:57:25;7.50;;;2.70;;
3189;SDS011;1606;51.946;10.558;2023-09-12T09:59:53;6.83;;;2.60;;
3189;SDS011;1606;51.946;10.558;2023-09-12T10:02:23;7.30;;;2.90;;
3189;SDS011;1606;51.946;10.558;2023-09-12T10:04:55;8.17;;;2.80;;
3189;SDS011;1606;51.946;10.558;2023-09-12T10:07:29;7.50;;;3.30;;
3189;SDS011;1606;51.946;10.558;2023-09-12T10:10:02;8.07;;;3.10;;
3189;SDS011;1606;51.946;10.558;2023-09-12T10:12:31;11.70;;;3.40;;
3189;SDS011;1606;51.946;10.558;2023-09-12T10:15:04;6.57;;;3.00;;
3189;SDS011;1606;51.946;10.558;2023-09-12T10:17:35;6.50;;;2.87;;
3189;SDS011;1606;51.946;10.558;2023-09-12T10:20:07;8.27;;;2.53;;
3189;SDS011;1606;51.946;10.558;2023-09-12T10:22:47;8.80;;;3.20;;
3189;SDS011;1606;51.946;10.558;2023-09-12T10:25:24;6.63;;;2.83;;
3189;SDS011;1606;51.946;10.558;2023-09-12T10:27:54;6.40;;;2.90;;
3189;SDS011;1606;51.946;10.558;2023-09-12T10:30:23;6.90;;;2.87;;
3189;SDS011;1606;51.946;10.558;2023-09-12T10:32:53;7.80;;;3.90;;
3189;SDS011;1606;51.946;10.558;2023-09-12T10:35:22;10.40;;;3.70;;
3189;SDS011;1606;51.946;10.558;2023-09-12T10:37:51;8.50;;;4.00;;
3189;SDS011;1606;51.946;10.558;2023-09-12T10:40:24;7.83;;;3.90;;
3189;SDS011;1606;51.946;10.558;2023-09-12T10:42:53;7.23;;;3.10;;
3189;SDS011;1606;51.946;10.558;2023-09-12T10:45:23;6.97;;;3.57;;
3189;SDS011;1606;51.946;10.558;2023-09-12T10:47:51;9.87;;;5.63;;
3189;SDS011;1606;51.946;10.558;2023-09-12T10:50:20;12.10;;;6.73;;
3189;SDS011;1606;51.946;10.558;2023-09-12T10:52:48;11.37;;;6.70;;
3189;SDS011;1606;51.946;10.558;2023-09-12T10:55:17;12.40;;;7.00;;
3189;SDS011;1606;51.946;10.558;2023-09-12T10:58:01;13.10;;;7.80;;
3189;SDS011;1606;51.946;10.558;2023-09-12T11:00:30;12.57;;;7.77;;
3189;SDS011;1606;51.946;10.558;2023-09-12T11:02:59;13.43;;;7.50;;
3189;SDS011;1606;51.946;10.558;2023-09-12T11:05:51;14.10;;;8.40;;
3189;SDS011;1606;51.946;10.558;2023-09-12T11:08:20;12.80;;;6.60;;
3189;SDS011;1606;51.946;10.558;2023-09-12T11:13:46;11.17;;;6.70;;
3189;SDS011;1606;51.946;10.558;2023-09-12T11:16:29;9.27;;;6.40;;
3189;SDS011;1606;51.946;10.558;2023-09-12T11:19:11;12.27;;;6.93;;
3189;SDS011;1606;51.946;10.558;2023-09-12T11:21:41;11.53;;;7.97;;
3189;SDS011;1606;51.946;10.558;2023-09-12T11:24:11;12.50;;;6.53;;
3189;SDS011;1606;51.946;10.558;2023-09-12T11:26:57;13.30;;;6.70;;
3189;SDS011;1606;51.946;10.558;2023-09-12T11:29:29;10.00;;;5.63;;
3189;SDS011;1606;51.946;10.558;2023-09-12T11:31:58;9.10;;;5.27;;
3189;SDS011;1606;51.946;10.558;2023-09-12T11:34:30;8.60;;;4.88;;
3189;SDS011;1606;51.946;10.558;2023-09-12T11:37:05;9.40;;;4.90;;
3189;SDS011;1606;51.946;10.558;2023-09-12T11:39:35;7.30;;;4.17;;
3189;SDS011;1606;51.946;10.558;2023-09-12T11:42:07;7.40;;;4.60;;
3189;SDS011;1606;51.946;10.558;2023-09-12T11:44:39;8.60;;;4.77;;
3189;SDS011;1606;51.946;10.558;2023-09-12T11:47:10;8.37;;;5.47;;
3189;SDS011;1606;51.946;10.558;2023-09-12T11:49:40;9.07;;;4.90;;
3189;SDS011;1606;51.946;10.558;2023-09-12T11:52:08;7.83;;;3.80;;
3189;SDS011;1606;51.946;10.558;2023-09-12T11:54:38;9.13;;;3.90;;
3189;SDS011;1606;51.946;10.558;2023-09-12T11:57:09;7.07;;;3.67;;
3189;SDS011;1606;51.946;10.558;2023-09-12T11:59:38;7.40;;;3.57;;
3189;SDS011;1606;51.946;10.558;2023-09-12T12:02:07;8.77;;;4.00;;
3189;SDS011;1606;51.946;10.558;2023-09-12T12:04:35;7.20;;;3.10;;
3189;SDS011;1606;51.946;10.558;2023-09-12T12:07:05;8.77;;;3.30;;
3189;SDS011;1606;51.946;10.558;2023-09-12T12:09:34;9.03;;;5.00;;
3189;SDS011;1606;51.946;10.558;2023-09-12T12:12:10;9.57;;;4.70;;
3189;SDS011;1606;51.946;10.558;2023-09-12T12:14:39;8.23;;;4.27;;
3189;SDS011;1606;51.946;10.558;2023-09-12T12:17:08;8.60;;;5.00;;
3189;SDS011;1606;51.946;10.558;2023-09-12T12:19:37;8.90;;;4.33;;
3189;SDS011;1606;51.946;10.558;2023-09-12T12:22:06;9.40;;;4.30;;
3189;SDS011;1606;51.946;10.558;2023-09-12T12:24:36;7.03;;;4.30;;
3189;SDS011;1606;51.946;10.558;2023-09-12T12:27:05;9.47;;;5.00;;
3189;SDS011;1606;51.946;10.558;2023-09-12T12:29:35;9.20;;;4.87;;
3189;SDS011;1606;51.946;10.558;2023-09-12T12:32:05;9.17;;;4.40;;
3189;SDS011;1606;51.946;10.558;2023-09-12T12:34:35;10.57;;;5.03;;
3189;SDS011;1606;51.946;10.558;2023-09-12T12:37:27;7.53;;;4.60;;
3189;SDS011;1606;51.946;10.558;2023-09-12T12:39:57;8.83;;;5.37;;
3189;SDS011;1606;51.946;10.558;2023-09-12T12:42:28;11.07;;;5.27;;
3189;SDS011;1606;51.946;10.558;2023-09-12T12:45:18;9.43;;;5.33;;
3189;SDS011;1606;51.946;10.558;2023-09-12T12:47:50;11.77;;;5.00;;
3189;SDS011;1606;51.946;10.558;2023-09-12T12:50:19;10.10;;;5.67;;
3189;SDS011;1606;51.946;10.558;2023-09-12T12:52:48;8.77;;;5.47;;
3189;SDS011;1606;51.946;10.558;2023-09-12T12:55:16;13.80;;;6.10;;
3189;SDS011;1606;51.946;10.558;2023-09-12T12:57:47;9.37;;;5.57;;
3189;SDS011;1606;51.946;10.558;2023-09-12T13:00:18;7.93;;;4.97;;
3189;SDS011;1606;51.946;10.558;2023-09-12T13:02:47;8.50;;;5.43;;
3189;SDS011;1606;51.946;10.558;2023-09-12T13:05:23;11.03;;;5.90;;
3189;SDS011;1606;51.946;10.558;2023-09-12T13:07:52;11.50;;;6.60;;
3189;SDS011;1606;51.946;10.558;2023-09-12T13:10:20;10.33;;;6.57;;
3189;SDS011;1606;51.946;10.558;2023-09-12T13:12:49;10.57;;;5.93;;
3189;SDS011;1606;51.946;10.558;2023-09-12T13:15:19;9.93;;;6.30;;
3189;SDS011;1606;51.946;10.558;2023-09-12T13:17:47;13.57;;;6.03;;
3189;SDS011;1606;51.946;10.558;2023-09-12T13:20:15;7.83;;;4.40;;
3189;SDS011;1606;51.946;10.558;2023-09-12T13:22:43;8.70;;;4.20;;
3189;SDS011;1606;51.946;10.558;2023-09-12T13:25:11;8.87;;;4.60;;
3189;SDS011;1606;51.946;10.558;2023-09-12T13:27:39;8.70;;;4.30;;
3189;SDS011;1606;51.946;10.558;2023-09-12T13:30:07;8.00;;;5.00;;
3189;SDS011;1606;51.946;10.558;2023-09-12T13:32:38;7.33;;;4.00;;
3189;SDS011;1606;51.946;10.558;2023-09-12T13:35:06;10.80;;;4.40;;
3189;SDS011;1606;51.946;10.558;2023-09-12T13:37:34;9.23;;;4.00;;
3189;SDS011;1606;51.946;10.558;2023-09-12T13:40:02;9.10;;;4.50;;
3189;SDS011;1606;51.946;10.558;2023-09-12T13:42:33;7.90;;;3.93;;
3189;SDS011;1606;51.946;10.558;2023-09-12T13:45:01;9.50;;;3.80;;
3189;SDS011;1606;51.946;10.558;2023-09-12T13:47:29;8.73;;;3.80;;
3189;SDS011;1606;51.946;10.558;2023-09-12T13:49:58;9.00;;;4.50;;
3189;SDS011;1606;51.946;10.558;2023-09-12T13:52:26;9.87;;;4.13;;
3189;SDS011;1606;51.946;10.558;2023-09-12T13:54:54;7.60;;;4.27;;
3189;SDS011;1606;51.946;10.558;2023-09-12T13:57:24;7.10;;;3.63;;
3189;SDS011;1606;51.946;10.558;2023-09-12T13:59:52;8.30;;;3.90;;
3189;SDS011;1606;51.946;10.558;2023-09-12T14:02:20;8.10;;;4.20;;
3189;SDS011;1606;51.946;10.558;2023-09-12T14:04:50;10.17;;;4.83;;
3189;SDS011;1606;51.946;10.558;2023-09-12T14:07:36;8.37;;;4.10;;
3189;SDS011;1606;51.946;10.558;2023-09-12T14:10:05;8.13;;;4.67;;
3189;SDS011;1606;51.946;10.558;2023-09-12T14:12:35;8.20;;;4.27;;
3189;SDS011;1606;51.946;10.558;2023-09-12T14:15:03;13.70;;;4.37;;
3189;SDS011;1606;51.946;10.558;2023-09-12T14:17:34;12.70;;;5.67;;
3189;SDS011;1606;51.946;10.558;2023-09-12T14:20:09;8.57;;;5.00;;
3189;SDS011;1606;51.946;10.558;2023-09-12T14:22:43;9.77;;;4.63;;
3189;SDS011;1606;51.946;10.558;2023-09-12T14:25:11;11.20;;;4.80;;
3189;SDS011;1606;51.946;10.558;2023-09-12T14:27:41;11.60;;;4.83;;
3189;SDS011;1606;51.946;10.558;2023-09-12T14:30:11;9.40;;;5.27;;
3189;SDS011;1606;51.946;10.558;2023-09-12T14:32:40;8.60;;;4.20;;
3189;SDS011;1606;51.946;10.558;2023-09-12T14:35:08;9.17;;;4.50;;
3189;SDS011;1606;51.946;10.558;2023-09-12T14:37:36;8.47;;;4.03;;
3189;SDS011;1606;51.946;10.558;2023-09-12T14:40:06;7.97;;;4.10;;
3189;SDS011;1606;51.946;10.558;2023-09-12T14:42:37;19.30;;;5.40;;
3189;SDS011;1606;51.946;10.558;2023-09-12T14:45:05;22.53;;;5.00;;
3189;SDS011;1606;51.946;10.558;2023-09-12T14:47:35;15.47;;;4.07;;
3189;SDS011;1606;51.946;10.558;2023-09-12T14:50:04;16.20;;;4.50;;
3189;SDS011;1606;51.946;10.558;2023-09-12T14:52:32;15.10;;;4.10;;
3189;SDS011;1606;51.946;10.558;2023-09-12T14:55:00;10.60;;;3.40;;
3189;SDS011;1606;51.946;10.558;2023-09-12T14:57:31;14.30;;;4.00;;
3189;SDS011;1606;51.946;10.558;2023-09-12T14:59:59;6.90;;;3.00;;
3189;SDS011;1606;51.946;10.558;2023-09-12T15:02:27;7.43;;;3.00;;